Latest Weather Observations for Ulladulla

IDN60901

Issued at 6:05 pm EST Wednesday 1 October 2014 (issued every 10 minutes, with the page automatically refreshed every 10 minutes)

About weather observations | Map of Canberra area stations | Latest observations for Canberra area | Other Formats
Station Details ID: 069138 Name: ULLADULLA AWS Lat: -35.36 Lon: 150.48 Height: 35.7 m
Data from the previous 72 hours. | See also: Recent months at Ulladulla
Date/Time
EST
Tmp

°C
App
Tmp
°C
Dew
Point
°C
Rel
Hum
%
Delta-T

°C
Wind Press
QNH
hPa
Press
MSL
hPa
Rain
since
9 am
mm
Dir
 
Spd
km/h
Gust
km/h
Spd
kts
Gust
kts
01/06:00pm 14.8 10.2 6.4 57 4.0 S 20 30 11 16 1020.6 1020.6 0.0
01/05:30pm 14.9 10.2 6.2 56 4.2 SSE 20 30 11 16 1020.0 1020.0 0.0
01/05:00pm 15.2 9.9 6.7 57 4.1 SSE 24 35 13 19 1019.7 1019.7 0.0
01/04:30pm 15.7 9.8 5.6 51 4.8 S 26 37 14 20 1019.5 1019.5 0.0
01/04:00pm 16.2 9.0 5.2 48 5.2 S 32 43 17 23 1019.1 1019.1 0.0
01/03:30pm 16.4 9.2 5.1 47 5.4 S 32 43 17 23 1018.5 1018.5 0.0
01/03:00pm 16.8 10.1 3.5 41 6.1 S 28 41 15 22 1018.3 1018.3 0.0
01/02:30pm 16.9 9.8 3.6 41 6.2 S 30 46 16 25 1018.2 1018.2 0.0
01/02:00pm 16.9 10.3 4.3 43 5.9 S 28 41 15 22 1018.2 1018.2 0.0
01/01:30pm 17.4 11.1 3.7 40 6.4 S 26 35 14 19 1018.3 1018.3 0.0
01/01:00pm 17.2 11.0 2.4 37 6.7 S 24 35 13 19 1018.3 1018.3 0.0
01/12:30pm 16.9 8.9 0.5 33 7.1 S 32 44 17 24 1018.4 1018.4 0.0
01/12:00pm 16.9 9.1 1.4 35 6.9 S 32 43 17 23 1018.4 1018.4 0.0
01/11:30am 16.8 9.5 2.4 38 6.5 S 30 39 16 21 1018.5 1018.5 0.0
01/11:00am 16.8 9.3 0.9 34 6.9 S 30 41 16 22 1018.5 1018.5 0.0
01/10:30am 17.0 11.4 -0.2 31 7.4 S 19 32 10 17 1018.3 1018.3 0.0
01/10:00am 17.2 11.7 -1.9 27 7.9 SSW 17 28 9 15 1018.0 1018.0 0.0
01/09:30am 16.2 10.2 -1.8 29 7.4 SSW 20 35 11 19 1017.9 1017.9 0.0
01/09:00am 15.6 8.9 -3.8 26 7.6 SW 22 35 12 19 1017.7 1017.7 0.0
01/08:30am 15.7 10.1 -2.7 28 7.4 SW 17 28 9 15 1017.4 1017.4 0.0
01/08:00am 14.9 9.3 -3.0 29 7.1 SW 17 24 9 13 1017.1 1017.1 0.0
01/07:30am 14.8 9.6 -2.6 30 6.9 WSW 15 24 8 13 1016.5 1016.5 0.0
01/07:00am 14.0 7.7 -3.7 29 6.8 SW 20 35 11 19 1016.1 1016.1 0.0
01/06:30am 13.7 8.0 -4.0 29 6.8 SW 17 32 9 17 1015.5 1015.5 0.0
01/06:00am 12.9 7.9 -4.2 30 6.4 WSW 13 24 7 13 1014.6 1014.6 0.0
01/05:30am 13.1 6.9 -4.5 29 6.6 WSW 19 32 10 17 1013.8 1013.8 0.0
01/05:00am 12.0 8.0 2.7 53 4.1 WSW 13 24 7 13 1013.3 1013.3 0.0
01/04:30am 11.9 10.1 8.0 77 1.9 NW 7 11 4 6 1012.7 1012.7 0.0
01/04:00am 11.7 10.6 8.6 81 1.5 W 4 6 2 3 1012.1 1012.1 0.0
01/03:30am 12.5 10.7 9.3 81 1.6 NNW 9 15 5 8 1011.2 1011.2 0.0
01/03:00am 12.9 11.7 9.7 81 1.6 N 6 9 3 5 1011.0 1011.0 0.0
01/02:30am 12.7 12.5 9.2 79 1.8 CALM 0 4 0 2 1010.9 1010.9 0.0
01/02:00am 13.4 10.9 9.8 79 1.9 S 13 19 7 10 1010.8 1010.8 0.0
01/01:30am 13.4 8.8 9.6 78 1.9 S 24 35 13 19 1010.7 1010.7 0.0
01/01:00am 14.0 6.5 9.4 74 2.4 S 39 56 21 30 1010.7 1010.7 0.0
01/12:57am 14.1 6.2 9.5 74 2.4 S 41 56 22 30 1010.6 1010.6 0.0
01/12:30am 16.3 9.8 10.4 68 3.1 SSE 35 57 19 31 1008.6 1008.6 0.0
01/12:23am 19.4 13.8 8.7 50 5.6 S 28 63 15 34 1008.4 1008.4 0.0
01/12:00am 23.0 18.5 1.9 25 9.9 W 15 32 8 17 1007.2 1007.1 0.0
 
Date/Time
EST
Tmp

°C
App
Tmp
°C
Dew
Point
°C
Rel
Hum
%
Delta-T

°C
Wind Press
QNH
hPa
Press
MSL
hPa
Rain
since
9 am
mm
Dir
 
Spd
km/h
Gust
km/h
Spd
kts
Gust
kts
30/11:30pm 23.3 19.8 1.0 23 10.3 W 9 15 5 8 1006.4 1006.3 0.0
30/11:00pm 24.0 19.3 1.0 22 10.7 WNW 15 28 8 15 1005.9 1005.8 0.0
30/10:30pm 23.5 20.0 1.2 23 10.4 WNW 9 22 5 12 1005.8 1005.7 0.0
30/10:00pm 23.4 20.7 0.5 22 10.6 N 4 13 2 7 1005.9 1005.8 0.0
30/09:30pm 22.3 19.7 0.8 24 9.8 NNE 4 17 2 9 1006.1 1006.0 0.0
30/09:00pm 23.8 21.1 0.2 21 10.8 NNW 4 9 2 5 1006.1 1006.0 0.0
30/08:30pm 24.5 21.3 0.8 21 11.0 NW 7 33 4 18 1006.2 1006.1 0.0
30/08:00pm 23.3 20.9 2.2 25 10.0 WSW 4 11 2 6 1006.4 1006.3 0.0
30/07:30pm 24.7 21.9 3.4 25 10.4 WNW 7 19 4 10 1006.4 1006.3 0.0
30/07:00pm 25.0 22.1 4.7 27 10.2 NW 9 26 5 14 1006.1 1006.0 0.0
30/06:30pm 25.5 22.3 5.1 27 10.4 WNW 11 28 6 15 1005.7 1005.6 0.0
30/06:00pm 25.8 22.9 4.9 26 10.6 NW 9 20 5 11 1005.4 1005.3 0.0
30/05:30pm 26.8 21.5 5.1 25 11.1 NW 22 43 12 23 1005.1 1005.0 0.0
30/05:00pm 27.4 21.0 5.1 24 11.5 NNW 28 52 15 28 1004.8 1004.7 0.0
30/04:39pm 27.7 21.2 4.7 23 11.8 NNW 28 50 15 27 1004.5 1004.4 0.0
30/04:30pm 27.7 21.7 5.3 24 11.6 NNW 26 46 14 25 1004.7 1004.6 0.0
30/04:24pm 27.9 21.3 4.2 22 12.0 NNW 28 46 15 25 1004.5 1004.4 0.0
30/04:00pm 28.6 22.9 4.8 22 12.3 NW 24 56 13 30 1005.3 1005.2 0.0
30/03:30pm 29.1 22.7 5.2 22 12.4 NW 28 50 15 27 1005.7 1005.6 0.0
30/03:00pm 29.3 21.7 4.0 20 12.9 NW 33 56 18 30 1005.7 1005.6 0.0
30/02:53pm 29.4 22.8 4.1 20 12.9 NW 28 56 15 30 1005.7 1005.6 0.0
30/02:30pm 29.3 22.0 4.7 21 12.7 NW 32 46 17 25 1006.0 1005.9 0.0
30/02:00pm 29.4 24.2 5.5 22 12.5 NW 22 39 12 21 1006.6 1006.5 0.0
30/01:30pm 30.0 25.1 5.3 21 12.9 WNW 20 35 11 19 1006.9 1006.8 0.0
30/01:00pm 29.5 26.0 5.6 22 12.6 WNW 13 22 7 12 1007.1 1007.0 0.0
30/12:30pm 29.2 24.5 6.0 23 12.2 NW 20 35 11 19 1007.5 1007.5 0.0
30/12:00pm 28.9 23.4 5.7 23 12.2 NNW 24 37 13 20 1008.0 1008.0 0.0
30/11:30am 28.3 23.7 6.4 25 11.6 NW 20 33 11 18 1008.5 1008.5 0.0
30/11:00am 27.7 23.2 7.0 27 11.0 NNW 20 35 11 19 1008.9 1008.9 0.0
30/10:30am 24.1 22.6 11.8 46 7.0 NNE 11 22 6 12 1009.7 1009.7 0.0
30/10:00am 23.7 22.0 9.7 41 7.6 N 9 17 5 9 1010.2 1010.2 0.0
30/09:30am 24.7 21.7 7.8 34 9.0 N 13 24 7 13 1010.7 1010.7 0.0
30/09:00am 24.4 20.4 6.6 32 9.2 NNW 17 26 9 14 1010.9 1010.9 0.0
30/08:30am 23.7 21.2 8.2 37 8.2 NNW 11 22 6 12 1011.3 1011.3 0.0
30/08:00am 22.5 19.7 7.1 37 8.0 N 11 15 6 8 1011.6 1011.6 0.0
30/07:30am 21.5 19.3 7.7 41 7.2 NNW 9 13 5 7 1011.7 1011.7 0.0
30/07:00am 20.2 18.4 7.9 45 6.4 NNW 7 11 4 6 1011.6 1011.6 0.0
30/06:30am 19.0 17.4 8.6 51 5.4 NNW 7 13 4 7 1011.7 1011.7 0.0
30/06:26am 18.4 16.9 9.2 55 4.8 NNW 7 11 4 6 1011.6 1011.6 0.0
30/06:00am 13.4 12.3 10.0 80 1.8 NNW 6 7 3 4 1011.6 1011.6 0.0
30/05:30am 12.2 12.4 10.4 89 0.9 CALM 0 0 0 0 1011.3 1011.3 0.0
30/05:00am 12.0 12.0 9.9 87 1.1 CALM 0 0 0 0 1011.0 1011.0 0.0
30/04:30am 12.9 11.8 10.8 87 1.1 N 7 11 4 6 1011.0 1011.0 0.0
30/04:00am 13.3 11.7 11.5 89 1.0 N 11 13 6 7 1011.0 1011.0 0.0
30/03:30am 13.6 12.3 11.3 86 1.2 N 9 15 5 8 1011.3 1011.3 0.0
30/03:00am 12.0 10.6 9.7 86 1.2 N 7 7 4 4 1011.6 1011.6 0.0
30/02:30am 12.9 11.8 10.1 83 1.4 NNW 6 7 3 4 1012.0 1012.0 0.0
30/02:00am 12.8 11.8 10.2 84 1.3 NNW 6 7 3 4 1012.3 1012.3 0.0
30/01:30am 12.9 11.6 10.1 83 1.4 NW 7 9 4 5 1012.7 1012.7 0.0
30/01:00am 13.0 12.0 10.2 83 1.4 WNW 6 7 3 4 1013.0 1013.0 0.0
30/12:30am 13.0 12.4 10.5 85 1.3 WSW 4 6 2 3 1013.4 1013.4 0.0
30/12:00am 13.1 13.2 10.3 83 1.5 CALM 0 0 0 0 1013.6 1013.6 0.0
 
Date/Time
EST
Tmp

°C
App
Tmp
°C
Dew
Point
°C
Rel
Hum
%
Delta-T

°C
Wind Press
QNH
hPa
Press
MSL
hPa
Rain
since
9 am
mm
Dir
 
Spd
km/h
Gust
km/h
Spd
kts
Gust
kts
29/11:30pm 13.3 13.5 10.7 84 1.4 CALM 0 0 0 0 1013.9 1013.9 0.0
29/11:00pm 13.4 13.2 10.6 83 1.5 WSW 2 2 1 1 1014.3 1014.3 0.0
29/10:30pm 13.5 12.9 10.5 82 1.6 WSW 4 4 2 2 1014.5 1014.5 0.0
29/10:00pm 13.7 13.1 10.5 81 1.7 WSW 4 6 2 3 1014.8 1014.8 0.0
29/09:30pm 14.0 13.1 10.8 81 1.7 W 6 6 3 3 1015.2 1015.2 0.0
29/09:00pm 14.4 14.0 11.2 81 1.7 W 4 6 2 3 1015.3 1015.3 0.0
29/08:30pm 14.1 13.2 10.7 80 1.8 W 6 7 3 4 1015.6 1015.6 0.0
29/08:00pm 14.2 13.3 10.8 80 1.8 WSW 6 7 3 4 1015.6 1015.6 0.0
29/07:30pm 14.7 13.9 10.9 78 2.0 WSW 6 7 3 4 1015.5 1015.5 0.0
29/07:00pm 15.4 15.0 11.2 76 2.2 SW 4 6 2 3 1015.3 1015.3 0.0
29/06:30pm 16.2 15.7 12.2 77 2.2 SSW 6 9 3 5 1015.3 1015.3 0.0
29/06:00pm 16.7 15.6 12.0 74 2.6 SSW 9 15 5 8 1014.9 1014.9 0.0
29/05:30pm 17.1 14.4 11.8 71 2.9 S 17 19 9 10 1014.7 1014.7 0.0
29/05:00pm 17.4 14.8 12.1 71 2.9 S 17 20 9 11 1014.5 1014.5 0.0
29/04:30pm 17.8 14.9 12.3 70 3.0 S 19 22 10 12 1014.1 1014.1 0.0
29/04:00pm 18.4 15.3 12.2 67 3.4 S 20 24 11 13 1013.9 1013.9 0.0
29/03:30pm 18.9 15.8 11.7 63 4.0 S 19 26 10 14 1013.6 1013.6 0.0
29/03:00pm 19.2 16.7 13.4 69 3.3 S 19 24 10 13 1013.1 1013.1 0.0
29/02:30pm 19.4 16.4 12.7 65 3.8 S 20 28 11 15 1012.7 1012.7 0.0
29/02:00pm 19.7 17.3 13.9 69 3.3 S 19 26 10 14 1012.4 1012.4 0.0
29/01:30pm 20.1 17.6 13.6 66 3.7 S 19 26 10 14 1012.0 1012.0 0.0
29/01:00pm 20.6 18.7 14.3 67 3.7 SSE 17 28 9 15 1011.4 1011.4 0.0
29/12:44pm 23.0 18.2 10.4 45 6.9 SSE 26 33 14 18 1011.3 1011.3 0.0
29/12:30pm 28.6 26.4 6.1 24 11.8 WNW 7 17 4 9 1010.9 1010.9 0.0
29/12:00pm 29.0 26.2 7.0 25 11.8 W 11 22 6 12 1011.2 1011.2 0.0
29/11:30am 27.8 24.2 6.6 26 11.2 NW 15 26 8 14 1011.5 1011.5 0.0
29/11:00am 27.5 23.7 5.7 25 11.3 WNW 15 22 8 12 1011.8 1011.8 0.0
29/10:30am 26.6 22.6 5.0 25 11.0 WNW 15 33 8 18 1012.2 1012.2 0.0
29/10:00am 25.6 22.2 5.8 28 10.2 NW 13 24 7 13 1012.5 1012.5 0.0
29/09:30am 24.9 22.5 7.1 32 9.3 N 9 13 5 7 1012.6 1012.6 0.0
29/09:00am 23.3 20.9 7.0 35 8.4 N 9 13 5 7 1012.9 1012.9 0.0
29/08:30am 22.9 21.1 7.8 38 7.9 NE 7 15 4 8 1012.9 1012.9 0.0
29/08:00am 22.9 20.6 5.8 33 8.6 N 7 13 4 7 1012.7 1012.7 0.0
29/07:30am 23.3 19.2 4.3 29 9.4 WNW 15 30 8 16 1012.8 1012.8 0.0
29/07:00am 22.7 19.0 4.2 30 9.1 W 13 28 7 15 1012.5 1012.5 0.0
29/06:30am 21.8 18.5 4.4 32 8.5 NW 11 20 6 11 1011.7 1011.7 0.0
29/06:00am 20.8 18.7 4.0 33 8.1 NW 4 15 2 8 1010.9 1010.9 0.0
29/05:30am 21.4 17.2 4.0 32 8.4 NW 15 20 8 11 1010.4 1010.4 0.0
29/05:00am 21.9 16.8 4.0 31 8.7 NW 20 33 11 18 1010.2 1010.2 0.0
29/04:30am 22.2 17.6 3.8 30 8.9 WNW 17 28 9 15 1010.1 1010.1 0.0
29/04:00am 21.7 16.9 4.7 33 8.4 NW 19 30 10 16 1010.1 1010.1 0.0
29/03:30am 20.6 17.7 6.5 40 7.1 NNW 11 20 6 11 1010.4 1010.4 0.0
29/03:00am 18.3 16.8 8.3 52 5.2 N 6 15 3 8 1010.5 1010.5 0.0
29/02:30am 19.3 17.7 8.6 50 5.6 N 7 15 4 8 1010.8 1010.8 0.0
29/02:00am 18.8 17.3 9.0 53 5.1 N 7 15 4 8 1010.9 1010.9 0.0
29/01:30am 17.4 16.6 11.0 66 3.5 NNE 6 11 3 6 1011.4 1011.4 0.0
29/01:00am 17.1 16.2 11.2 68 3.2 N 7 15 4 8 1012.1 1012.1 0.0
29/12:30am 17.5 15.4 11.1 66 3.5 N 13 19 7 10 1012.5 1012.5 0.0
29/12:00am 17.4 14.7 11.7 69 3.1 N 17 24 9 13 1012.6 1012.6 0.0
 
Date/Time
EST
Tmp

°C
App
Tmp
°C
Dew
Point
°C
Rel
Hum
%
Delta-T

°C
Wind Press
QNH
hPa
Press
MSL
hPa
Rain
since
9 am
mm
Dir
 
Spd
km/h
Gust
km/h
Spd
kts
Gust
kts
28/11:30pm 17.4 16.7 11.9 70 3.0 N 7 15 4 8 1012.8 1012.8 0.0
28/11:00pm 18.3 15.8 11.1 63 3.9 N 15 22 8 12 1012.8 1012.8 0.0
28/10:30pm 17.2 16.6 13.5 79 2.1 NNE 9 19 5 10 1012.8 1012.8 0.0
28/10:00pm 16.9 15.9 14.5 86 1.4 NE 13 20 7 11 1013.2 1013.2 0.0
28/09:30pm 17.1 17.4 14.4 84 1.5 NNW 6 11 3 6 1013.4 1013.4 0.0
28/09:00pm 17.5 17.6 14.0 80 2.0 N 6 11 3 6 1014.1 1014.1 0.0
28/08:30pm 17.5 18.0 14.0 80 2.0 N 4 7 2 4 1014.6 1014.6 0.0
28/08:00pm 17.4 17.7 14.5 83 1.7 NE 6 11 3 6 1014.4 1014.4 0.0
28/07:30pm 17.5 17.3 14.8 84 1.6 N 9 15 5 8 1014.1 1014.1 0.0
28/07:00pm 17.7 17.8 14.4 81 1.9 NNE 7 19 4 10 1013.9 1013.9 0.0
28/06:30pm 18.1 17.7 14.2 78 2.2 N 9 17 5 9 1013.4 1013.4 0.0

Latest Capital City Observations: Canberra | Sydney | Melbourne | Brisbane | Adelaide | Perth | Hobart | Darwin

Other Formats:

Comma delimited format used in spreadsheet applications
http://www.bom.gov.au/fwo/IDN60903/IDN60903.94938.axf

JavaScript Object Notation format (JSON) in row-major order
http://www.bom.gov.au/fwo/IDN60903/IDN60903.94938.json